Terminal Aerodrome Forecast
Issued by NWS Bismarck, ND

Home | Current Version | Previous Version | Text Only | Print | Product List | Glossary Off
Versions: 1 2 3 4 5 6 7 8 9 10 11 12 13 14 15 16 17 18 19 20 21 22 23 24

331
FTUS43 KBIS 221724
TAFBIS
TAF
KBIS 221724Z 2218/2318 14008KT P6SM VCTS SCT080CB BKN150
     FM230000 11013G20KT P6SM SHRA BKN090
      TEMPO 2300/2303 4SM TSGR OVC040CB
     FM230300 09015G21KT P6SM SHRA VCTS BKN090CB
     FM231300 12012G18KT P6SM SHRA VCTS BKN090CB
     FM231600 20010KT P6SM SHRA VCTS BKN070CB=

USA.gov is the U.S. government's official web portal to all federal, state and local government web resources and services.